createdAt,value
2017-06-23T11:07:59.546Z,14.23
2017-06-23T11:10:27.152Z,15.13
2017-06-23T11:12:54.770Z,15.00
2017-06-23T11:15:22.529Z,12.40
2017-06-23T11:17:50.113Z,12.60
2017-06-23T11:20:17.696Z,16.50
2017-06-23T11:22:45.307Z,17.00
2017-06-23T11:25:13.930Z,16.10
2017-06-23T11:27:41.498Z,15.80
2017-06-23T11:30:09.682Z,15.20
2017-06-23T11:32:37.599Z,11.90
2017-06-23T11:35:05.236Z,12.03
2017-06-23T11:37:33.854Z,12.27
2017-06-23T11:40:01.789Z,11.60
2017-06-23T11:42:29.540Z,13.40
2017-06-23T11:44:58.612Z,12.07
2017-06-23T11:47:26.224Z,10.83
2017-06-23T11:49:53.799Z,10.87
2017-06-23T11:52:21.729Z,11.97
2017-06-23T11:54:49.354Z,11.20
2017-06-23T11:57:16.920Z,11.70
2017-06-23T11:59:45.512Z,10.70
2017-06-23T12:02:13.110Z,8.63
2017-06-23T12:04:43.400Z,7.03
2017-06-23T12:07:11.755Z,8.80
2017-06-23T12:09:39.621Z,10.40
2017-06-23T12:12:08.083Z,9.93
2017-06-23T12:14:37.164Z,8.30
2017-06-23T12:17:04.831Z,8.73
2017-06-23T12:19:32.577Z,6.87
2017-06-23T12:22:00.382Z,9.57
2017-06-23T12:24:28.070Z,7.97
2017-06-23T12:26:56.507Z,6.80
2017-06-23T12:29:24.704Z,7.07
2017-06-23T12:31:52.254Z,7.77
2017-06-23T12:34:19.829Z,6.33
2017-06-23T12:36:48.817Z,6.90
2017-06-23T12:39:16.400Z,6.60
2017-06-23T12:41:43.990Z,6.17
2017-06-23T12:44:11.949Z,7.93
2017-06-23T12:46:39.521Z,5.97
2017-06-23T12:49:07.161Z,6.57
2017-06-23T12:51:35.151Z,5.73
2017-06-23T12:54:02.816Z,6.33
2017-06-23T12:56:31.164Z,5.90
2017-06-23T12:59:00.600Z,6.83
2017-06-23T13:01:29.695Z,5.67
2017-06-23T13:03:57.286Z,5.30
2017-06-23T13:06:26.311Z,6.20
2017-06-23T13:08:53.984Z,5.30
2017-06-23T13:11:21.691Z,5.07
2017-06-23T13:13:49.551Z,5.40
2017-06-23T13:16:17.126Z,6.50
2017-06-23T13:18:44.683Z,5.17
2017-06-23T13:21:12.581Z,5.40
2017-06-23T13:23:40.245Z,6.20
2017-06-23T13:26:07.877Z,5.50
2017-06-23T13:28:35.943Z,5.50
2017-06-23T13:31:03.575Z,5.30
2017-06-23T13:33:31.276Z,4.70
2017-06-23T13:35:58.956Z,5.50
2017-06-23T13:38:27.329Z,4.67
2017-06-23T13:40:55.844Z,4.87
2017-06-23T13:43:23.830Z,4.27
2017-06-23T13:45:52.158Z,4.70
2017-06-23T13:48:19.764Z,4.50
2017-06-23T13:50:48.322Z,5.67
2017-06-23T13:53:15.884Z,5.37
2017-06-23T13:55:43.550Z,4.43
2017-06-23T13:58:11.345Z,4.70
2017-06-23T14:00:40.752Z,4.40
2017-06-23T14:03:09.355Z,3.80
2017-06-23T14:05:37.274Z,3.80
2017-06-23T14:08:05.109Z,4.13
2017-06-23T14:10:32.886Z,4.60
2017-06-23T14:13:00.644Z,5.20
2017-06-23T14:15:28.381Z,5.90
2017-06-23T14:17:55.986Z,5.73
2017-06-23T14:20:24.753Z,6.20
2017-06-23T14:22:52.327Z,5.70
2017-06-23T14:27:56.961Z,6.00
2017-06-23T14:30:24.601Z,7.40
2017-06-23T14:32:53.156Z,6.87
2017-06-23T14:35:20.987Z,7.00
2017-06-23T14:37:49.337Z,8.97
2017-06-23T14:40:16.916Z,8.40
2017-06-23T14:42:44.868Z,8.10
2017-06-23T14:45:12.591Z,6.83
2017-06-23T14:47:40.148Z,6.77
2017-06-23T14:50:09.158Z,4.90
2017-06-23T14:52:36.784Z,4.10
2017-06-23T14:55:05.001Z,3.70
2017-06-23T14:57:32.806Z,3.80
2017-06-23T15:00:00.470Z,3.77
2017-06-23T15:02:28.110Z,3.17
2017-06-23T15:04:56.227Z,5.43
2017-06-23T15:07:24.573Z,4.10
2017-06-23T15:09:52.165Z,3.87
2017-06-23T15:12:20.098Z,4.40
2017-06-23T15:14:48.510Z,5.50
2017-06-23T15:17:16.093Z,4.47
2017-06-23T15:19:44.136Z,5.20
2017-06-23T15:22:11.732Z,4.93
2017-06-23T15:24:39.387Z,5.77
2017-06-23T15:27:07.432Z,5.87
2017-06-23T15:29:35.143Z,6.10
2017-06-23T15:32:02.814Z,5.80
2017-06-23T15:34:30.886Z,4.43
2017-06-23T15:36:58.449Z,6.20
2017-06-23T15:39:27.050Z,5.23
2017-06-23T15:41:54.951Z,5.63
2017-06-23T15:44:22.557Z,4.80
2017-06-23T15:46:50.136Z,5.27
2017-06-23T15:49:18.149Z,5.30
2017-06-23T15:51:45.716Z,4.93
2017-06-23T15:54:15.012Z,3.93
2017-06-23T15:56:42.974Z,3.60
2017-06-23T15:59:10.571Z,3.37
2017-06-23T16:01:38.321Z,3.47
2017-06-23T16:04:06.871Z,5.10
2017-06-23T16:06:34.617Z,4.90
2017-06-23T16:09:02.371Z,5.03
2017-06-23T16:11:31.167Z,4.70
2017-06-23T16:13:58.821Z,5.00
2017-06-23T16:16:27.294Z,5.43
2017-06-23T16:18:54.910Z,5.33
2017-06-23T16:21:23.834Z,6.07
2017-06-23T16:23:51.435Z,5.70
2017-06-23T16:26:20.121Z,6.23
2017-06-23T16:28:47.762Z,5.87
2017-06-23T16:31:15.336Z,6.40
2017-06-23T16:33:43.161Z,7.73
2017-06-23T16:36:10.745Z,7.50
2017-06-23T16:38:38.312Z,6.87
2017-06-23T16:41:06.336Z,6.97
2017-06-23T16:43:34.061Z,6.63
2017-06-23T16:46:02.758Z,6.00
2017-06-23T16:48:31.031Z,5.93
2017-06-23T16:50:59.941Z,6.57
2017-06-23T16:53:34.098Z,7.07
2017-06-23T16:56:03.221Z,8.23
2017-06-23T16:58:31.146Z,6.70
2017-06-23T17:00:58.790Z,7.03
2017-06-23T17:03:26.704Z,6.57
2017-06-23T17:05:55.037Z,7.10
2017-06-23T17:08:22.611Z,5.83
2017-06-23T17:10:50.988Z,7.33
2017-06-23T17:13:19.305Z,7.97
2017-06-23T17:15:46.862Z,10.20
2017-06-23T17:18:15.482Z,8.57
2017-06-23T17:20:43.205Z,7.33
2017-06-23T17:23:10.787Z,7.33
2017-06-23T17:25:38.577Z,9.47
2017-06-23T17:28:06.165Z,8.80
2017-06-23T17:30:33.877Z,11.00
2017-06-23T17:33:01.715Z,9.73
2017-06-23T17:35:29.365Z,9.87
2017-06-23T17:37:57.738Z,11.27
2017-06-23T17:40:26.529Z,12.80
2017-06-23T17:42:54.862Z,9.67
2017-06-23T17:45:22.425Z,10.30
2017-06-23T17:47:51.112Z,10.80
2017-06-23T17:50:18.778Z,11.23
2017-06-23T17:52:46.464Z,9.40
2017-06-23T17:55:16.047Z,9.90
2017-06-23T17:57:43.645Z,10.13
2017-06-23T18:00:11.238Z,11.37
2017-06-23T18:02:39.330Z,11.43
2017-06-23T18:05:07.693Z,11.27
2017-06-23T18:07:36.150Z,10.73
2017-06-23T18:10:05.508Z,10.00
2017-06-23T18:12:33.773Z,10.60
2017-06-23T18:15:01.730Z,13.83
2017-06-23T18:17:30.799Z,10.00
2017-06-23T18:19:58.974Z,11.07
2017-06-23T18:22:26.628Z,12.10
2017-06-23T18:24:55.385Z,9.50
2017-06-23T18:27:22.960Z,11.40
2017-06-23T18:29:50.548Z,8.53
2017-06-23T18:32:18.874Z,9.47
2017-06-23T18:34:47.241Z,8.20
2017-06-23T18:37:15.580Z,9.00
2017-06-23T18:39:44.264Z,8.03
2017-06-23T18:42:12.603Z,9.37
2017-06-23T18:44:40.192Z,8.57
2017-06-23T18:47:08.337Z,8.00
2017-06-23T18:49:36.075Z,7.97
2017-06-23T18:52:04.820Z,8.43
2017-06-23T18:54:32.878Z,8.17
2017-06-23T18:57:00.632Z,7.73
2017-06-23T18:59:29.051Z,7.60
2017-06-23T19:01:57.293Z,7.47
2017-06-23T19:04:24.896Z,6.90
2017-06-23T19:06:52.537Z,7.03
2017-06-23T19:09:20.976Z,6.50
2017-06-23T19:11:49.469Z,6.30
2017-06-23T19:14:17.061Z,6.43
2017-06-23T19:16:45.785Z,7.57
2017-06-23T19:19:13.342Z,7.33
2017-06-23T19:21:41.241Z,4.87
2017-06-23T19:24:09.881Z,6.20
2017-06-23T19:26:38.433Z,5.70
2017-06-23T19:29:06.087Z,4.77
2017-06-23T19:31:34.113Z,5.10
2017-06-23T19:34:01.921Z,5.10
2017-06-23T19:36:30.638Z,4.77
2017-06-23T19:39:00.118Z,6.10
2017-06-23T19:41:27.760Z,6.57
2017-06-23T19:43:56.346Z,6.10
2017-06-23T19:46:24.346Z,7.57
2017-06-23T19:48:52.836Z,6.13
2017-06-23T19:51:20.409Z,5.60
2017-06-23T19:53:48.308Z,6.20
2017-06-23T19:56:15.866Z,5.80
2017-06-23T19:58:43.459Z,7.40
2017-06-23T20:01:11.438Z,7.70
2017-06-23T20:03:39.091Z,7.83
2017-06-23T20:06:07.506Z,7.30
2017-06-23T20:08:35.513Z,6.77
2017-06-23T20:11:03.199Z,8.47
2017-06-23T20:13:30.892Z,7.90
2017-06-23T20:15:59.550Z,7.60
2017-06-23T20:18:27.110Z,7.67
2017-06-23T20:20:54.669Z,7.27
2017-06-23T20:23:23.765Z,6.50
2017-06-23T20:25:51.357Z,7.43
2017-06-23T20:28:18.919Z,7.40
2017-06-23T20:30:46.687Z,7.00
2017-06-23T20:33:15.017Z,9.50
2017-06-23T20:35:42.572Z,7.10
2017-06-23T20:38:11.062Z,6.97
2017-06-23T20:40:39.471Z,7.73
2017-06-23T20:43:07.051Z,7.00
2017-06-23T20:45:36.641Z,8.17
2017-06-23T20:48:04.288Z,8.27
2017-06-23T20:50:32.869Z,7.77
2017-06-23T20:53:01.269Z,9.00
2017-06-23T20:55:28.967Z,7.83
2017-06-23T20:57:56.553Z,7.70
2017-06-23T21:00:24.507Z,7.10
2017-06-23T21:02:52.128Z,7.27
2017-06-23T21:05:20.451Z,6.73
2017-06-23T21:07:48.653Z,7.03
2017-06-23T21:10:16.222Z,7.27
2017-06-23T21:12:44.727Z,7.83
2017-06-23T21:15:12.685Z,8.10
2017-06-23T21:17:40.282Z,11.27
2017-06-23T21:20:08.128Z,8.00
2017-06-23T21:22:36.245Z,7.43
2017-06-23T21:25:05.465Z,7.77
2017-06-23T21:27:33.093Z,8.17
2017-06-23T21:30:02.402Z,10.10
2017-06-23T21:32:30.025Z,6.87
2017-06-23T21:34:57.615Z,6.60
2017-06-23T21:37:25.420Z,10.80
2017-06-23T21:39:53.760Z,7.83
2017-06-23T21:42:21.341Z,8.37
2017-06-23T21:44:49.182Z,8.43
2017-06-23T21:47:17.503Z,7.60
2017-06-23T21:49:45.076Z,9.13
2017-06-23T21:52:13.139Z,8.10
2017-06-23T21:54:40.700Z,9.20
2017-06-23T21:57:08.268Z,9.00
2017-06-23T21:59:36.528Z,7.77
2017-06-23T22:02:04.171Z,7.77
2017-06-23T22:04:31.921Z,8.30
2017-06-23T22:07:00.282Z,7.57
2017-06-23T22:09:27.880Z,7.77
2017-06-23T22:11:56.229Z,7.30
2017-06-23T22:14:24.336Z,8.73
2017-06-23T22:16:51.947Z,8.47
2017-06-23T22:19:19.516Z,10.37
2017-06-23T22:21:47.533Z,7.53
2017-06-23T22:24:15.194Z,8.43
2017-06-23T22:26:43.064Z,8.33
2017-06-23T22:29:11.741Z,8.40
2017-06-23T22:31:40.291Z,8.63
2017-06-23T22:34:09.049Z,7.20
2017-06-23T22:36:39.094Z,6.90
2017-06-23T22:39:06.730Z,7.70
2017-06-23T22:41:34.554Z,9.07
2017-06-23T22:44:02.778Z,7.83
2017-06-23T22:46:30.637Z,7.97
2017-06-23T22:48:58.220Z,6.93
2017-06-23T22:51:26.866Z,7.90
2017-06-23T22:53:54.421Z,7.50
2017-06-23T22:56:21.990Z,7.70
2017-06-23T22:58:56.902Z,9.23
2017-06-23T23:01:25.337Z,7.83
2017-06-23T23:03:52.922Z,9.30
2017-06-23T23:06:20.695Z,8.50
2017-06-23T23:08:48.282Z,8.33
2017-06-23T23:11:15.915Z,7.03
2017-06-23T23:13:43.805Z,9.93
2017-06-23T23:16:12.167Z,8.33
2017-06-23T23:18:40.509Z,8.23
2017-06-23T23:21:08.506Z,8.07
2017-06-23T23:23:36.100Z,8.40
2017-06-23T23:26:03.685Z,9.40
2017-06-23T23:28:32.367Z,9.07
2017-06-23T23:31:00.053Z,9.60
2017-06-23T23:33:27.673Z,9.67
2017-06-23T23:35:55.397Z,10.87
2017-06-23T23:38:23.000Z,9.90
2017-06-23T23:40:50.577Z,11.53
2017-06-23T23:43:20.168Z,12.30
2017-06-23T23:45:48.504Z,10.70
2017-06-23T23:48:16.092Z,10.30
2017-06-23T23:50:44.736Z,10.53
2017-06-23T23:53:13.068Z,11.20
2017-06-23T23:55:40.657Z,12.07
2017-06-23T23:58:09.412Z,13.90
